Time;durP1;ratioP1;P1;durP2;ratioP2;P2;SDS_P1;SDS_P2;PMS_P1;PMS_P2;Temp;Humidity;BMP_temperature;BMP_pressure;BME280_temperature;BME280_humidity;BME280_pressure;Samples;Min_cycle;Max_cycle;Signal;HPM_P1;HPM_P2
2022/04/15 00:02:03;;;;;;;;;;;;;;;;;;5094369;28;19920;-76
2022/04/15 00:04:30;;;;;;;;;;;;;;;;;;5093044;28;19923;-77
2022/04/15 00:06:56;;;;;;;;;;;;;;;;;;5094259;28;19959;-77
2022/04/15 00:09:21;;;;;;;;;;;;;;;;;;5094289;28;19977;-76
2022/04/15 00:11:47;;;;;;;;;;;;;;;;;;5094572;28;19916;-76
2022/04/15 00:14:12;;;;;;;;;;;;;;;;;;5089028;28;19916;-76
2022/04/15 00:16:38;;;;;;;;;;;;;;;;;;5072649;28;20011;-76
2022/04/15 00:19:03;;;;;;;;;;;;;;;;;;5072459;28;19916;-76
2022/04/15 00:21:28;;;;;;;;;;;;;;;;;;5071698;28;20374;-76
2022/04/15 00:23:56;;;;;;;;;;;;;;;;;;5071935;28;19920;-76
2022/04/15 00:26:26;;;;;;;;;;;;;;;;;;5070322;28;19916;-76
2022/04/15 00:28:52;;;;;;;;;;;;;;;;;;5070596;28;19927;-76
2022/04/15 00:31:17;;;;;;;;;;;;;;;;;;5081060;28;19916;-76
2022/04/15 00:33:43;;;;;;;;;;;;;;;;;;5090851;28;19920;-76
2022/04/15 00:36:08;;;;;;;;;;;;;;;;;;5093495;28;20018;-76
2022/04/15 00:38:35;;;;;;;;;;;;;;;;;;5092262;28;19973;-76
2022/04/15 00:41:00;;;;;;;;;;;;;;;;;;5093032;28;19923;-76
2022/04/15 00:43:25;;;;;;;;;;;;;;;;;;5093251;28;19916;-76
2022/04/15 00:45:50;;;;;;;;;;;;;;;;;;5092800;28;19920;-76
2022/04/15 00:48:19;;;;;;;;;;;;;;;;;;5092109;28;19916;-76
2022/04/15 00:50:45;;;;;;;;;;;;;;;;;;5093981;28;19916;-76
2022/04/15 00:53:11;;;;;;;;;;;;;;;;;;5093961;28;19923;-76
2022/04/15 00:55:37;;;;;;;;;;;;;;;;;;5093798;28;20015;-76
2022/04/15 00:58:04;;;;;;;;;;;;;;;;;;5095249;28;20338;-76
2022/04/15 01:00:34;;;;;;;;;;;;;;;;;;5098331;28;19922;-76
2022/04/15 01:03:00;;;;;;;;;;;;;;;;;;5098237;28;19916;-77
2022/04/15 01:05:26;;;;;;;;;;;;;;;;;;5098218;28;20414;-76
2022/04/15 01:07:52;;;;;;;;;;;;;;;;;;5098005;28;19971;-77
2022/04/15 01:10:21;;;;;;;;;;;;;;;;;;5098221;28;19916;-76
2022/04/15 01:12:48;;;;;;;;;;;;;;;;;;5097327;28;19917;-76
2022/04/15 01:15:14;;;;;;;;;;;;;;;;;;5091828;28;19916;-76
2022/04/15 01:17:39;;;;;;;;;;;;;;;;;;5077230;28;19920;-76
2022/04/15 01:20:09;;;;;;;;;;;;;;;;;;5076983;28;19928;-76
2022/04/15 01:22:42;;;;;;;;;;;;;;;;;;5076020;28;19917;-77
2022/04/15 01:25:09;;;;;;;;;;;;;;;;;;5076856;28;20369;-76
2022/04/15 01:27:39;;;;;;;;;;;;;;;;;;5075645;28;19918;-76
2022/04/15 01:30:05;;;;;;;;;;;;;;;;;;5085523;28;19923;-76
2022/04/15 01:32:31;;;;;;;;;;;;;;;;;;5079073;28;19916;-77
2022/04/15 01:34:56;;;;;;;;;;;;;;;;;;5097336;28;19916;-77
2022/04/15 01:37:22;;;;;;;;;;;;;;;;;;5097064;28;20430;-76
2022/04/15 01:39:48;;;;;;;;;;;;;;;;;;5097340;28;20428;-76
2022/04/15 01:42:14;;;;;;;;;;;;;;;;;;5095666;28;19920;-76
2022/04/15 01:44:40;;;;;;;;;;;;;;;;;;5096953;28;19916;-77
2022/04/15 01:47:05;;;;;;;;;;;;;;;;;;5096866;28;19961;-76
2022/04/15 01:49:30;;;;;;;;;;;;;;;;;;5096967;28;19923;-76
2022/04/15 01:51:56;;;;;;;;;;;;;;;;;;5096774;28;20243;-76
2022/04/15 01:54:21;;;;;;;;;;;;;;;;;;5095479;28;19923;-76
2022/04/15 01:56:46;;;;;;;;;;;;;;;;;;5096537;28;19920;-76
2022/04/15 01:59:11;;;;;;;;;;;;;;;;;;5096738;28;19916;-76
2022/04/15 02:01:37;;;;;;;;;;;;;;;;;;5096651;28;20266;-76
2022/04/15 02:04:02;;;;;;;;;;;;;;;;;;5095401;28;19923;-76
2022/04/15 02:06:28;;;;;;;;;;;;;;;;;;5096576;28;20362;-76
2022/04/15 02:08:53;;;;;;;;;;;;;;;;;;5096162;28;19955;-76
2022/04/15 02:11:19;;;;;;;;;;;;;;;;;;5094514;28;19920;-76
2022/04/15 02:13:44;;;;;;;;;;;;;;;;;;5095355;28;19994;-76
2022/04/15 02:16:10;;;;;;;;;;;;;;;;;;5095286;28;19962;-76
2022/04/15 02:18:36;;;;;;;;;;;;;;;;;;5094105;28;20297;-76
2022/04/15 02:21:01;;;;;;;;;;;;;;;;;;5093997;28;20326;-76
2022/04/15 02:23:26;;;;;;;;;;;;;;;;;;5092475;28;19920;-76
2022/04/15 02:25:52;;;;;;;;;;;;;;;;;;5092261;28;19924;-76
2022/04/15 02:28:17;;;;;;;;;;;;;;;;;;5093717;28;19920;-76
2022/04/15 02:30:47;;;;;;;;;;;;;;;;;;5092662;28;20516;-76
2022/04/15 02:33:12;;;;;;;;;;;;;;;;;;5076213;28;20365;-76
2022/04/15 02:35:38;;;;;;;;;;;;;;;;;;5092332;28;19927;-76
2022/04/15 02:38:03;;;;;;;;;;;;;;;;;;5093501;28;19923;-76
2022/04/15 02:40:28;;;;;;;;;;;;;;;;;;5092365;28;19920;-76
2022/04/15 02:42:54;;;;;;;;;;;;;;;;;;5093417;28;19923;-76
2022/04/15 02:45:19;;;;;;;;;;;;;;;;;;5092552;28;19916;-76
2022/04/15 02:47:45;;;;;;;;;;;;;;;;;;5092203;28;19923;-76
2022/04/15 02:50:10;;;;;;;;;;;;;;;;;;5095309;28;19916;-76
2022/04/15 02:52:35;;;;;;;;;;;;;;;;;;5095940;28;20285;-76
2022/04/15 02:55:00;;;;;;;;;;;;;;;;;;5095229;28;19920;-77
2022/04/15 02:57:26;;;;;;;;;;;;;;;;;;5095222;28;19920;-77
2022/04/15 02:59:51;;;;;;;;;;;;;;;;;;5095534;28;19923;-76
2022/04/15 03:02:16;;;;;;;;;;;;;;;;;;5095375;28;20386;-76
2022/04/15 03:04:42;;;;;;;;;;;;;;;;;;5095559;28;19956;-76
2022/04/15 03:07:07;;;;;;;;;;;;;;;;;;5094250;28;20011;-76
2022/04/15 03:09:32;;;;;;;;;;;;;;;;;;5095469;28;20289;-76
2022/04/15 03:11:58;;;;;;;;;;;;;;;;;;5095448;28;19924;-77
2022/04/15 03:14:23;;;;;;;;;;;;;;;;;;5089701;28;19921;-76
2022/04/15 03:16:48;;;;;;;;;;;;;;;;;;5073750;28;20270;-77
2022/04/15 03:19:14;;;;;;;;;;;;;;;;;;5075292;28;19973;-76
2022/04/15 03:21:39;;;;;;;;;;;;;;;;;;5074708;28;19916;-77
2022/04/15 03:24:05;;;;;;;;;;;;;;;;;;5074841;28;20278;-77
2022/04/15 03:26:30;;;;;;;;;;;;;;;;;;5074619;28;20007;-76
2022/04/15 03:28:55;;;;;;;;;;;;;;;;;;5074861;28;19916;-77
2022/04/15 03:31:21;;;;;;;;;;;;;;;;;;5075010;28;19989;-76
2022/04/15 03:33:46;;;;;;;;;;;;;;;;;;5073598;28;19916;-77
2022/04/15 03:36:12;;;;;;;;;;;;;;;;;;5074639;28;20279;-76
2022/04/15 03:38:37;;;;;;;;;;;;;;;;;;5073517;28;19920;-76
2022/04/15 03:41:03;;;;;;;;;;;;;;;;;;5074560;28;19927;-77
2022/04/15 03:43:29;;;;;;;;;;;;;;;;;;5075254;28;19916;-77
2022/04/15 03:45:55;;;;;;;;;;;;;;;;;;5095072;28;19985;-77
2022/04/15 03:48:20;;;;;;;;;;;;;;;;;;5095095;28;19964;-77
2022/04/15 03:50:45;;;;;;;;;;;;;;;;;;5093754;28;19938;-76
2022/04/15 03:53:11;;;;;;;;;;;;;;;;;;5095057;28;19916;-76
2022/04/15 03:55:36;;;;;;;;;;;;;;;;;;5094647;28;19973;-77
2022/04/15 03:58:01;;;;;;;;;;;;;;;;;;5094854;28;20006;-76
2022/04/15 04:00:27;;;;;;;;;;;;;;;;;;5094752;28;19916;-77
2022/04/15 04:02:53;;;;;;;;;;;;;;;;;;5094616;28;20293;-77
2022/04/15 04:05:19;;;;;;;;;;;;;;;;;;5094502;28;19916;-77
2022/04/15 04:07:44;;;;;;;;;;;;;;;;;;5094285;28;19923;-77
2022/04/15 04:10:13;;;;;;;;;;;;;;;;;;5094633;28;20006;-77
2022/04/15 04:12:39;;;;;;;;;;;;;;;;;;5094955;28;20027;-77
2022/04/15 04:15:05;;;;;;;;;;;;;;;;;;5089245;28;20110;-77
2022/04/15 04:17:31;;;;;;;;;;;;;;;;;;5074321;28;19974;-77
2022/04/15 04:19:56;;;;;;;;;;;;;;;;;;5073385;28;19917;-77
2022/04/15 04:22:26;;;;;;;;;;;;;;;;;;5074034;28;20011;-77
2022/04/15 04:24:51;;;;;;;;;;;;;;;;;;5073909;28;19917;-76
2022/04/15 04:27:17;;;;;;;;;;;;;;;;;;5073752;28;20430;-77
2022/04/15 04:29:42;;;;;;;;;;;;;;;;;;5073601;28;20370;-76
2022/04/15 04:32:07;;;;;;;;;;;;;;;;;;5073463;28;20019;-77
2022/04/15 04:34:33;;;;;;;;;;;;;;;;;;5073251;28;19921;-76
2022/04/15 04:36:58;;;;;;;;;;;;;;;;;;5073635;28;20010;-77
2022/04/15 04:39:26;;;;;;;;;;;;;;;;;;5073575;28;20282;-77
2022/04/15 04:41:51;;;;;;;;;;;;;;;;;;5073942;28;19917;-76
2022/04/15 04:44:16;;;;;;;;;;;;;;;;;;5077198;28;20480;-77
2022/04/15 04:46:42;;;;;;;;;;;;;;;;;;5073738;28;19916;-76
2022/04/15 04:49:07;;;;;;;;;;;;;;;;;;5073483;28;20010;-77
2022/04/15 04:51:32;;;;;;;;;;;;;;;;;;5072389;28;19920;-77
2022/04/15 04:53:58;;;;;;;;;;;;;;;;;;5073575;28;20050;-77
2022/04/15 04:56:23;;;;;;;;;;;;;;;;;;5073004;28;19963;-77
2022/04/15 04:58:48;;;;;;;;;;;;;;;;;;5073428;28;19916;-76
2022/04/15 05:01:14;;;;;;;;;;;;;;;;;;5072281;28;19917;-76
2022/04/15 05:03:39;;;;;;;;;;;;;;;;;;5072180;28;19923;-76
2022/04/15 05:06:04;;;;;;;;;;;;;;;;;;5072108;28;20366;-76
2022/04/15 05:08:30;;;;;;;;;;;;;;;;;;5072536;28;19916;-77
2022/04/15 05:10:55;;;;;;;;;;;;;;;;;;5073317;28;20374;-76
2022/04/15 05:13:20;;;;;;;;;;;;;;;;;;5072532;28;19923;-76
2022/04/15 05:15:45;;;;;;;;;;;;;;;;;;5092207;28;19920;-76
2022/04/15 05:18:11;;;;;;;;;;;;;;;;;;5093724;28;20362;-76
2022/04/15 05:20:37;;;;;;;;;;;;;;;;;;5093757;28;19923;-76
2022/04/15 05:23:03;;;;;;;;;;;;;;;;;;5093445;28;19916;-76
2022/04/15 05:25:28;;;;;;;;;;;;;;;;;;5093126;28;20380;-77
2022/04/15 05:27:54;;;;;;;;;;;;;;;;;;5093326;28;19916;-76
2022/04/15 05:30:19;;;;;;;;;;;;;;;;;;5093699;28;19920;-76
2022/04/15 05:32:44;;;;;;;;;;;;;;;;;;5093587;28;19918;-76
2022/04/15 05:35:10;;;;;;;;;;;;;;;;;;5093504;28;19920;-76
2022/04/15 05:37:35;;;;;;;;;;;;;;;;;;5093552;28;19916;-76
2022/04/15 05:40:00;;;;;;;;;;;;;;;;;;5093315;28;19923;-76
2022/04/15 05:42:26;;;;;;;;;;;;;;;;;;5092261;28;19916;-76
2022/04/15 05:44:51;;;;;;;;;;;;;;;;;;5095668;28;19919;-76
2022/04/15 05:47:17;;;;;;;;;;;;;;;;;;5096971;28;19951;-76
2022/04/15 05:49:42;;;;;;;;;;;;;;;;;;5095786;28;20359;-76
2022/04/15 05:52:08;;;;;;;;;;;;;;;;;;5096827;28;20439;-76
2022/04/15 05:54:33;;;;;;;;;;;;;;;;;;5096952;28;19931;-76
2022/04/15 05:56:58;;;;;;;;;;;;;;;;;;5096613;28;19920;-76
2022/04/15 05:59:23;;;;;;;;;;;;;;;;;;5096780;28;19916;-77
2022/04/15 06:01:51;;;;;;;;;;;;;;;;;;5095753;28;19976;-76
2022/04/15 06:04:17;;;;;;;;;;;;;;;;;;5096174;28;20014;-76
2022/04/15 06:06:42;;;;;;;;;;;;;;;;;;5097081;28;19916;-76
2022/04/15 06:09:12;;;;;;;;;;;;;;;;;;5097276;28;19916;-77
2022/04/15 06:11:41;;;;;;;;;;;;;;;;;;5097202;28;19916;-76
2022/04/15 06:14:09;;;;;;;;;;;;;;;;;;5091401;28;19916;-76
2022/04/15 06:16:37;;;;;;;;;;;;;;;;;;5076089;28;19921;-77
2022/04/15 06:19:03;;;;;;;;;;;;;;;;;;5076062;28;20393;-76
2022/04/15 06:21:29;;;;;;;;;;;;;;;;;;5075087;28;20442;-76
2022/04/15 06:23:54;;;;;;;;;;;;;;;;;;5075750;28;20071;-77
2022/04/15 06:26:20;;;;;;;;;;;;;;;;;;5076119;28;19929;-77
2022/04/15 06:28:45;;;;;;;;;;;;;;;;;;5075412;28;20007;-76
2022/04/15 06:31:10;;;;;;;;;;;;;;;;;;5076098;28;19917;-77
2022/04/15 06:33:37;;;;;;;;;;;;;;;;;;5076668;28;20465;-76
2022/04/15 06:36:02;;;;;;;;;;;;;;;;;;5077490;28;20382;-76
2022/04/15 06:38:28;;;;;;;;;;;;;;;;;;5077374;28;19917;-76
2022/04/15 06:40:53;;;;;;;;;;;;;;;;;;5078841;28;19920;-76
2022/04/15 06:43:18;;;;;;;;;;;;;;;;;;5078111;28;19916;-76
2022/04/15 06:45:44;;;;;;;;;;;;;;;;;;5090855;28;19916;-76
2022/04/15 06:48:09;;;;;;;;;;;;;;;;;;5058144;28;19912;-76
2022/04/15 06:50:34;;;;;;;;;;;;;;;;;;5076189;28;19923;-76
2022/04/15 06:53:00;;;;;;;;;;;;;;;;;;5075973;28;19916;-76
2022/04/15 06:55:25;;;;;;;;;;;;;;;;;;5076518;28;20390;-76
2022/04/15 06:57:51;;;;;;;;;;;;;;;;;;5077852;28;20274;-76
2022/04/15 07:00:16;;;;;;;;;;;;;;;;;;5075777;28;19916;-77
2022/04/15 07:02:41;;;;;;;;;;;;;;;;;;5076463;28;20274;-77
2022/04/15 07:05:09;;;;;;;;;;;;;;;;;;5074406;28;19916;-76
2022/04/15 07:07:38;;;;;;;;;;;;;;;;;;5074410;28;19917;-77
2022/04/15 07:10:04;;;;;;;;;;;;;;;;;;5074236;28;19927;-77
2022/04/15 07:12:29;;;;;;;;;;;;;;;;;;5075243;28;20381;-77
2022/04/15 07:14:56;;;;;;;;;;;;;;;;;;5089439;28;19916;-77
2022/04/15 07:17:21;;;;;;;;;;;;;;;;;;5095045;28;19926;-76
2022/04/15 07:19:47;;;;;;;;;;;;;;;;;;5096078;28;20014;-76
2022/04/15 07:22:15;;;;;;;;;;;;;;;;;;5096397;28;19917;-76
2022/04/15 07:24:41;;;;;;;;;;;;;;;;;;5097035;28;19938;-77
2022/04/15 07:27:06;;;;;;;;;;;;;;;;;;5097007;28;19916;-77
2022/04/15 07:29:32;;;;;;;;;;;;;;;;;;5096855;28;19916;-76
2022/04/15 07:31:58;;;;;;;;;;;;;;;;;;5096375;28;19962;-76
2022/04/15 07:34:23;;;;;;;;;;;;;;;;;;5096044;28;19920;-77
2022/04/15 07:36:54;;;;;;;;;;;;;;;;;;5096248;28;19920;-76
2022/04/15 07:39:19;;;;;;;;;;;;;;;;;;5096364;28;20476;-76
2022/04/15 07:41:45;;;;;;;;;;;;;;;;;;5096468;28;19962;-76
2022/04/15 07:44:11;;;;;;;;;;;;;;;;;;5091614;28;19917;-76
2022/04/15 07:46:37;;;;;;;;;;;;;;;;;;5076038;28;19924;-76
2022/04/15 07:49:03;;;;;;;;;;;;;;;;;;5058552;28;19927;-76
2022/04/15 07:51:29;;;;;;;;;;;;;;;;;;5076326;28;19939;-76
2022/04/15 07:53:54;;;;;;;;;;;;;;;;;;5075296;28;20310;-76
2022/04/15 07:56:20;;;;;;;;;;;;;;;;;;5075009;28;19926;-76
2022/04/15 07:58:45;;;;;;;;;;;;;;;;;;5076014;28;19924;-76
2022/04/15 08:01:10;;;;;;;;;;;;;;;;;;5075750;28;19916;-76
2022/04/15 08:03:36;;;;;;;;;;;;;;;;;;5076478;28;19978;-76
2022/04/15 08:06:02;;;;;;;;;;;;;;;;;;5075345;28;19923;-76
2022/04/15 08:08:28;;;;;;;;;;;;;;;;;;5076296;28;19923;-76
2022/04/15 08:10:53;;;;;;;;;;;;;;;;;;5075950;28;19974;-76
2022/04/15 08:13:19;;;;;;;;;;;;;;;;;;5074955;28;19951;-77
2022/04/15 08:15:44;;;;;;;;;;;;;;;;;;5093707;28;20019;-75
2022/04/15 08:18:10;;;;;;;;;;;;;;;;;;5094253;28;19916;-76
2022/04/15 08:20:35;;;;;;;;;;;;;;;;;;5094558;28;19938;-76
2022/04/15 08:23:01;;;;;;;;;;;;;;;;;;5093210;28;20002;-76
2022/04/15 08:25:26;;;;;;;;;;;;;;;;;;5094006;28;20011;-76
2022/04/15 08:27:52;;;;;;;;;;;;;;;;;;5094477;28;20365;-77
2022/04/15 08:30:17;;;;;;;;;;;;;;;;;;5094216;28;19916;-77
2022/04/15 08:32:42;;;;;;;;;;;;;;;;;;5076359;28;20289;-75
2022/04/15 08:35:11;;;;;;;;;;;;;;;;;;5094711;28;19927;-77
2022/04/15 08:37:38;;;;;;;;;;;;;;;;;;5087518;28;19916;-77
2022/04/15 08:40:04;;;;;;;;;;;;;;;;;;5084656;28;19927;-77
2022/04/15 08:42:30;;;;;;;;;;;;;;;;;;5067645;28;19917;-77
2022/04/15 08:44:56;;;;;;;;;;;;;;;;;;5086049;28;19923;-77
2022/04/15 08:47:21;;;;;;;;;;;;;;;;;;5075457;28;19924;-77
2022/04/15 08:49:47;;;;;;;;;;;;;;;;;;5076552;28;19920;-77
2022/04/15 08:52:16;;;;;;;;;;;;;;;;;;5074815;28;19917;-77
2022/04/15 08:54:42;;;;;;;;;;;;;;;;;;5074838;28;19931;-77
2022/04/15 08:57:08;;;;;;;;;;;;;;;;;;5084668;28;19926;-77
2022/04/15 08:59:33;;;;;;;;;;;;;;;;;;5094972;28;19971;-76
2022/04/15 09:01:59;;;;;;;;;;;;;;;;;;5094064;28;20380;-77
2022/04/15 09:04:24;;;;;;;;;;;;;;;;;;5094658;28;19912;-77
2022/04/15 09:06:54;;;;;;;;;;;;;;;;;;5093472;28;19920;-77
2022/04/15 09:09:19;;;;;;;;;;;;;;;;;;5093519;28;20495;-77
2022/04/15 09:11:48;;;;;;;;;;;;;;;;;;5091672;28;19923;-78
2022/04/15 09:14:13;;;;;;;;;;;;;;;;;;5086371;28;20298;-77
2022/04/15 09:16:40;;;;;;;;;;;;;;;;;;5055947;28;19921;-77
2022/04/15 09:19:07;;;;;;;;;;;;;;;;;;5076561;28;19955;-78
2022/04/15 09:21:32;;;;;;;;;;;;;;;;;;5080756;28;19970;-78
2022/04/15 09:23:58;;;;;;;;;;;;;;;;;;5080178;28;19917;-77
2022/04/15 09:26:24;;;;;;;;;;;;;;;;;;5078313;28;19940;-78
2022/04/15 09:28:49;;;;;;;;;;;;;;;;;;5079821;28;19927;-77
2022/04/15 09:31:16;;;;;;;;;;;;;;;;;;5078698;28;19917;-77
2022/04/15 09:33:54;;;;;;;;;;;;;;;;;;5076723;28;19916;-77
2022/04/15 09:36:26;;;;;;;;;;;;;;;;;;5078133;28;19920;-78
2022/04/15 09:38:55;;;;;;;;;;;;;;;;;;5084085;28;20304;-77
2022/04/15 09:41:22;;;;;;;;;;;;;;;;;;5085962;28;19916;-75
2022/04/15 09:43:51;;;;;;;;;;;;;;;;;;5083213;28;19916;-75
2022/04/15 09:46:17;;;;;;;;;;;;;;;;;;5083428;28;19917;-75
2022/04/15 09:48:56;;;;;;;;;;;;;;;;;;5081117;28;19923;-75
2022/04/15 09:51:22;;;;;;;;;;;;;;;;;;5080634;28;19916;-75
2022/04/15 09:53:48;;;;;;;;;;;;;;;;;;5080058;28;20034;-75
2022/04/15 09:56:14;;;;;;;;;;;;;;;;;;5079431;28;19924;-75
2022/04/15 09:58:43;;;;;;;;;;;;;;;;;;5078780;28;19917;-76
2022/04/15 10:01:09;;;;;;;;;;;;;;;;;;5078824;28;19969;-75
2022/04/15 10:03:35;;;;;;;;;;;;;;;;;;5079157;28;19917;-75
2022/04/15 10:06:01;;;;;;;;;;;;;;;;;;5079316;28;19917;-75
2022/04/15 10:08:27;;;;;;;;;;;;;;;;;;5077291;28;19961;-76
2022/04/15 10:10:53;;;;;;;;;;;;;;;;;;5079199;28;19920;-75
2022/04/15 10:13:20;;;;;;;;;;;;;;;;;;5077796;28;19913;-75
2022/04/15 10:15:47;;;;;;;;;;;;;;;;;;5097578;28;20373;-75
2022/04/15 10:18:13;;;;;;;;;;;;;;;;;;5095468;28;20360;-75
2022/04/15 10:20:38;;;;;;;;;;;;;;;;;;5096737;28;19912;-75
2022/04/15 10:23:05;;;;;;;;;;;;;;;;;;5097521;28;19959;-76
2022/04/15 10:25:31;;;;;;;;;;;;;;;;;;5097021;28;19916;-75
2022/04/15 10:28:15;;;;;;;;;;;;;;;;;;5101807;28;19938;-76
2022/04/15 10:31:11;;;;;;;;;;;;;;;;;;5102589;28;20006;-76
2022/04/15 10:33:39;;;;;;;;;;;;;;;;;;5079666;28;19920;-76
2022/04/15 10:36:15;;;;;;;;;;;;;;;;;;5080035;28;20007;-75
2022/04/15 10:39:00;;;;;;;;;;;;;;;;;;5080320;28;19916;-75
2022/04/15 10:41:46;;;;;;;;;;;;;;;;;;5103197;27;19916;-77
2022/04/15 10:44:12;;;;;;;;;;;;;;;;;;5097251;28;19916;-77
2022/04/15 10:46:37;;;;;;;;;;;;;;;;;;5099032;28;19962;-77
2022/04/15 10:49:26;;;;;;;;;;;;;;;;;;5097693;28;19912;-77
2022/04/15 10:51:52;;;;;;;;;;;;;;;;;;5099578;28;19943;-79
2022/04/15 10:54:38;;;;;;;;;;;;;;;;;;5097780;28;19916;-76
2022/04/15 10:57:20;;;;;;;;;;;;;;;;;;5084281;28;19935;-78
2022/04/15 11:02:36;;;;;;;;;;;;;;;;;;5075174;28;19961;-77
2022/04/15 11:05:01;;;;;;;;;;;;;;;;;;5075269;28;19924;-76
2022/04/15 11:07:26;;;;;;;;;;;;;;;;;;5076027;28;20286;-78
2022/04/15 11:09:53;;;;;;;;;;;;;;;;;;5068175;28;21323;-76
2022/04/15 11:12:33;;;;;;;;;;;;;;;;;;5076129;28;19917;-77
2022/04/15 11:14:58;;;;;;;;;;;;;;;;;;5086359;28;20066;-78
2022/04/15 11:17:37;;;;;;;;;;;;;;;;;;5093891;28;19962;-78
2022/04/15 11:20:04;;;;;;;;;;;;;;;;;;5087385;28;20374;-78
2022/04/15 11:22:31;;;;;;;;;;;;;;;;;;5079255;28;20278;-78
2022/04/15 11:24:56;;;;;;;;;;;;;;;;;;5085121;28;19922;-78
2022/04/15 11:27:22;;;;;;;;;;;;;;;;;;5091648;28;19975;-77
2022/04/15 11:29:47;;;;;;;;;;;;;;;;;;5095154;28;19916;-79
2022/04/15 11:32:13;;;;;;;;;;;;;;;;;;5085267;28;19923;-78
2022/04/15 11:34:39;;;;;;;;;;;;;;;;;;5080674;28;19917;-78
2022/04/15 11:37:06;;;;;;;;;;;;;;;;;;5077728;28;19917;-78
2022/04/15 11:39:35;;;;;;;;;;;;;;;;;;5087238;28;19916;-79
2022/04/15 11:42:00;;;;;;;;;;;;;;;;;;5094428;28;19923;-81
2022/04/15 11:44:30;;;;;;;;;;;;;;;;;;5090545;28;19916;-79
2022/04/15 11:46:55;;;;;;;;;;;;;;;;;;5095221;28;20003;-81
2022/04/15 11:49:27;;;;;;;;;;;;;;;;;;5105114;28;19920;-78
2022/04/15 11:51:57;;;;;;;;;;;;;;;;;;5093988;28;19924;-81
2022/04/15 11:54:23;;;;;;;;;;;;;;;;;;5117349;28;20381;-82
2022/04/15 11:56:53;;;;;;;;;;;;;;;;;;5099051;28;20015;-78
2022/04/15 11:59:18;;;;;;;;;;;;;;;;;;5101635;28;19916;-83
2022/04/15 12:01:44;;;;;;;;;;;;;;;;;;5102927;28;19931;-81
2022/04/15 12:04:09;;;;;;;;;;;;;;;;;;5101907;28;19938;-80
2022/04/15 12:06:40;;;;;;;;;;;;;;;;;;5107609;28;19912;-84
2022/04/15 12:09:06;;;;;;;;;;;;;;;;;;5100592;28;19916;-80
2022/04/15 12:11:32;;;;;;;;;;;;;;;;;;5099607;28;19916;-80
2022/04/15 12:14:01;;;;;;;;;;;;;;;;;;5095451;28;19964;-76
2022/04/15 12:16:27;;;;;;;;;;;;;;;;;;5098189;28;19920;-83
2022/04/15 12:18:53;;;;;;;;;;;;;;;;;;5098913;28;19920;-83
2022/04/15 12:21:20;;;;;;;;;;;;;;;;;;5099287;28;19923;-82
2022/04/15 12:24:01;;;;;;;;;;;;;;;;;;5100005;28;19938;-78
2022/04/15 12:26:26;;;;;;;;;;;;;;;;;;5099161;28;19917;-79
2022/04/15 12:31:45;;;;;;;;;;;;;;;;;;5102836;28;19916;-80
2022/04/15 12:34:11;;;;;;;;;;;;;;;;;;5102248;28;19922;-84
2022/04/15 12:36:40;;;;;;;;;;;;;;;;;;5097039;28;19920;-81
2022/04/15 12:39:05;;;;;;;;;;;;;;;;;;5103609;28;19916;-82
2022/04/15 12:41:45;;;;;;;;;;;;;;;;;;5101979;28;19923;-78
2022/04/15 12:44:11;;;;;;;;;;;;;;;;;;5101718;28;19915;-82
2022/04/15 12:46:37;;;;;;;;;;;;;;;;;;5104412;28;19969;-80
2022/04/15 12:49:02;;;;;;;;;;;;;;;;;;5099903;28;19916;-78
2022/04/15 12:51:37;;;;;;;;;;;;;;;;;;5097072;28;19916;-79
2022/04/15 12:54:06;;;;;;;;;;;;;;;;;;5097095;28;20399;-77
2022/04/15 12:56:31;;;;;;;;;;;;;;;;;;5098801;28;19974;-77
2022/04/15 12:58:57;;;;;;;;;;;;;;;;;;5097700;28;19920;-77
2022/04/15 13:01:23;;;;;;;;;;;;;;;;;;5100393;28;20013;-79
2022/04/15 13:03:52;;;;;;;;;;;;;;;;;;5098483;28;20386;-77
2022/04/15 13:06:17;;;;;;;;;;;;;;;;;;5096846;28;19916;-77
2022/04/15 13:08:43;;;;;;;;;;;;;;;;;;5098515;28;19927;-78
2022/04/15 13:11:09;;;;;;;;;;;;;;;;;;5085113;28;19917;-78
2022/04/15 13:13:34;;;;;;;;;;;;;;;;;;5075168;28;19920;-79
2022/04/15 13:16:00;;;;;;;;;;;;;;;;;;5075422;28;20306;-76
2022/04/15 13:18:25;;;;;;;;;;;;;;;;;;5075032;28;19924;-77
2022/04/15 13:20:50;;;;;;;;;;;;;;;;;;5077001;28;19923;-76
2022/04/15 13:23:16;;;;;;;;;;;;;;;;;;5077139;28;19916;-77
2022/04/15 13:25:42;;;;;;;;;;;;;;;;;;5077718;28;20365;-78
2022/04/15 13:28:08;;;;;;;;;;;;;;;;;;5077526;28;19996;-77
2022/04/15 13:30:33;;;;;;;;;;;;;;;;;;5076903;28;19923;-76
2022/04/15 13:33:02;;;;;;;;;;;;;;;;;;5076831;28;19913;-75
2022/04/15 13:35:28;;;;;;;;;;;;;;;;;;5078200;28;19920;-78
2022/04/15 13:37:53;;;;;;;;;;;;;;;;;;5078419;28;19916;-78
2022/04/15 13:40:20;;;;;;;;;;;;;;;;;;5082952;28;19916;-77
2022/04/15 13:42:45;;;;;;;;;;;;;;;;;;5118791;28;19916;-77
2022/04/15 13:45:11;;;;;;;;;;;;;;;;;;5118695;28;19923;-75
2022/04/15 13:47:36;;;;;;;;;;;;;;;;;;5115014;28;19923;-77
2022/04/15 13:50:01;;;;;;;;;;;;;;;;;;5116042;28;19915;-77
2022/04/15 13:57:54;;;;;;;;;;;;;;;;;;5117068;28;19999;-76
2022/04/15 14:00:20;;;;;;;;;;;;;;;;;;5116934;28;20360;-75
2022/04/15 14:02:45;;;;;;;;;;;;;;;;;;5117083;28;19916;-75
2022/04/15 14:05:11;;;;;;;;;;;;;;;;;;5115350;28;19923;-76
2022/04/15 14:07:36;;;;;;;;;;;;;;;;;;5115469;28;20011;-76
2022/04/15 14:10:02;;;;;;;;;;;;;;;;;;5116500;28;20392;-76
2022/04/15 14:12:28;;;;;;;;;;;;;;;;;;5116828;28;20261;-76
2022/04/15 14:14:53;;;;;;;;;;;;;;;;;;5116667;28;19931;-75
2022/04/15 14:17:18;;;;;;;;;;;;;;;;;;5099500;28;20335;-76
2022/04/15 14:19:44;;;;;;;;;;;;;;;;;;5096370;28;19923;-77
2022/04/15 14:22:09;;;;;;;;;;;;;;;;;;5095113;28;19916;-76
2022/04/15 14:24:37;;;;;;;;;;;;;;;;;;5096215;28;19976;-76
2022/04/15 14:27:03;;;;;;;;;;;;;;;;;;5094879;28;19916;-77
2022/04/15 14:29:28;;;;;;;;;;;;;;;;;;5096037;28;20316;-76
2022/04/15 14:31:59;;;;;;;;;;;;;;;;;;5096089;28;19920;-75
2022/04/15 14:34:26;;;;;;;;;;;;;;;;;;5095930;28;19920;-75
2022/04/15 14:36:52;;;;;;;;;;;;;;;;;;5096344;28;19963;-78
2022/04/15 14:39:17;;;;;;;;;;;;;;;;;;5096258;28;20343;-77
2022/04/15 14:41:43;;;;;;;;;;;;;;;;;;5096015;28;19916;-75
2022/04/15 14:44:09;;;;;;;;;;;;;;;;;;5094554;28;19923;-76
2022/04/15 14:46:34;;;;;;;;;;;;;;;;;;5095422;28;19916;-76
2022/04/15 14:48:59;;;;;;;;;;;;;;;;;;5095805;28;19916;-75
2022/04/15 14:51:24;;;;;;;;;;;;;;;;;;5095701;28;19919;-75
2022/04/15 14:53:50;;;;;;;;;;;;;;;;;;5095446;28;19920;-77
2022/04/15 14:56:15;;;;;;;;;;;;;;;;;;5097496;28;20314;-78
2022/04/15 14:58:43;;;;;;;;;;;;;;;;;;5096359;28;20006;-75
2022/04/15 15:01:08;;;;;;;;;;;;;;;;;;5095323;28;19961;-76
2022/04/15 15:03:34;;;;;;;;;;;;;;;;;;5095496;28;19927;-77
2022/04/15 15:05:59;;;;;;;;;;;;;;;;;;5095547;28;19916;-76
2022/04/15 15:08:25;;;;;;;;;;;;;;;;;;5093930;28;19919;-77
2022/04/15 15:10:50;;;;;;;;;;;;;;;;;;5095422;28;19923;-77
2022/04/15 15:13:16;;;;;;;;;;;;;;;;;;5097122;28;20319;-78
2022/04/15 15:15:41;;;;;;;;;;;;;;;;;;5095581;28;19920;-77
2022/04/15 15:18:07;;;;;;;;;;;;;;;;;;5093710;28;19920;-79
2022/04/15 15:20:33;;;;;;;;;;;;;;;;;;5102338;28;19951;-79
2022/04/15 15:22:58;;;;;;;;;;;;;;;;;;5107024;28;19923;-79
2022/04/15 15:30:52;;;;;;;;;;;;;;;;;;5103425;28;19920;-80
2022/04/15 15:33:18;;;;;;;;;;;;;;;;;;5102948;28;19923;-81
2022/04/15 15:35:45;;;;;;;;;;;;;;;;;;5103974;28;19946;-79
2022/04/15 15:38:11;;;;;;;;;;;;;;;;;;5103552;28;20400;-80
2022/04/15 15:40:36;;;;;;;;;;;;;;;;;;5103733;28;19916;-79
2022/04/15 15:43:03;;;;;;;;;;;;;;;;;;5102793;28;19916;-79
2022/04/15 15:45:30;;;;;;;;;;;;;;;;;;5100872;28;20002;-80
2022/04/15 15:47:56;;;;;;;;;;;;;;;;;;5119168;28;20352;-79
2022/04/15 15:50:21;;;;;;;;;;;;;;;;;;5120605;28;20274;-80
2022/04/15 15:52:47;;;;;;;;;;;;;;;;;;5096864;28;19962;-79
2022/04/15 15:55:12;;;;;;;;;;;;;;;;;;5080243;28;19932;-80
2022/04/15 15:57:41;;;;;;;;;;;;;;;;;;5080966;28;19921;-81
2022/04/15 16:00:08;;;;;;;;;;;;;;;;;;5078111;28;19923;-80
2022/04/15 16:02:38;;;;;;;;;;;;;;;;;;5080926;28;19916;-79
2022/04/15 16:05:04;;;;;;;;;;;;;;;;;;5078885;28;19946;-81
2022/04/15 16:07:30;;;;;;;;;;;;;;;;;;5079719;28;19934;-80
2022/04/15 16:09:55;;;;;;;;;;;;;;;;;;5078543;28;19942;-80
2022/04/15 16:12:20;;;;;;;;;;;;;;;;;;5076842;28;20417;-81
2022/04/15 16:14:46;;;;;;;;;;;;;;;;;;5076802;28;19916;-80
2022/04/15 16:17:11;;;;;;;;;;;;;;;;;;5077432;28;19920;-80
2022/04/15 16:19:36;;;;;;;;;;;;;;;;;;5077108;28;19917;-80
2022/04/15 16:22:03;;;;;;;;;;;;;;;;;;5076885;28;19955;-79
2022/04/15 16:24:28;;;;;;;;;;;;;;;;;;5079608;28;20387;-79
2022/04/15 16:26:53;;;;;;;;;;;;;;;;;;5078896;28;19920;-80
2022/04/15 16:29:20;;;;;;;;;;;;;;;;;;5078467;28;19916;-80
2022/04/15 16:31:46;;;;;;;;;;;;;;;;;;5078585;28;19966;-80
2022/04/15 16:34:11;;;;;;;;;;;;;;;;;;5080650;28;19924;-80
2022/04/15 16:36:37;;;;;;;;;;;;;;;;;;5084977;28;19921;-81
2022/04/15 16:39:02;;;;;;;;;;;;;;;;;;5080112;28;19969;-80
2022/04/15 16:41:29;;;;;;;;;;;;;;;;;;5083800;28;20011;-81
2022/04/15 16:43:54;;;;;;;;;;;;;;;;;;5083814;28;19927;-81
2022/04/15 16:46:20;;;;;;;;;;;;;;;;;;5103827;28;19920;-80
2022/04/15 16:48:45;;;;;;;;;;;;;;;;;;5103767;28;19923;-80
2022/04/15 16:51:12;;;;;;;;;;;;;;;;;;5104015;28;19916;-80
2022/04/15 16:53:37;;;;;;;;;;;;;;;;;;5104057;28;19955;-79
2022/04/15 16:58:48;;;;;;;;;;;;;;;;;;5102912;28;19916;-80
2022/04/15 17:01:15;;;;;;;;;;;;;;;;;;5102379;28;19927;-80